sensor_id;sensor_type;location;lat;lon;timestamp;P1;durP1;ratioP1;P2;durP2;ratioP2
5199;SDS011;2619;47.868;11.892;2022-12-11T00:02:11;30.40;;;15.07;;
5199;SDS011;2619;47.868;11.892;2022-12-11T00:04:36;32.43;;;16.77;;
5199;SDS011;2619;47.868;11.892;2022-12-11T00:07:02;34.37;;;15.83;;
5199;SDS011;2619;47.868;11.892;2022-12-11T00:09:28;34.00;;;15.37;;
5199;SDS011;2619;47.868;11.892;2022-12-11T00:11:53;32.57;;;15.20;;
5199;SDS011;2619;47.868;11.892;2022-12-11T00:14:19;36.27;;;15.70;;
5199;SDS011;2619;47.868;11.892;2022-12-11T00:16:46;31.23;;;15.67;;
5199;SDS011;2619;47.868;11.892;2022-12-11T00:19:12;31.83;;;16.40;;
5199;SDS011;2619;47.868;11.892;2022-12-11T00:21:37;35.37;;;17.30;;
5199;SDS011;2619;47.868;11.892;2022-12-11T00:24:03;34.77;;;16.17;;
5199;SDS011;2619;47.868;11.892;2022-12-11T00:26:29;30.63;;;14.80;;
5199;SDS011;2619;47.868;11.892;2022-12-11T00:28:55;34.20;;;15.47;;
5199;SDS011;2619;47.868;11.892;2022-12-11T00:31:21;31.87;;;15.30;;
5199;SDS011;2619;47.868;11.892;2022-12-11T00:33:48;29.37;;;15.97;;
5199;SDS011;2619;47.868;11.892;2022-12-11T00:36:16;34.57;;;15.80;;
5199;SDS011;2619;47.868;11.892;2022-12-11T00:38:43;37.50;;;16.27;;
5199;SDS011;2619;47.868;11.892;2022-12-11T00:41:09;33.10;;;15.00;;
5199;SDS011;2619;47.868;11.892;2022-12-11T00:43:35;28.00;;;14.87;;
5199;SDS011;2619;47.868;11.892;2022-12-11T00:46:01;27.60;;;13.67;;
5199;SDS011;2619;47.868;11.892;2022-12-11T00:48:27;30.70;;;16.43;;
5199;SDS011;2619;47.868;11.892;2022-12-11T00:50:53;35.97;;;16.03;;
5199;SDS011;2619;47.868;11.892;2022-12-11T00:53:18;33.87;;;16.20;;
5199;SDS011;2619;47.868;11.892;2022-12-11T00:55:44;22.40;;;13.87;;
5199;SDS011;2619;47.868;11.892;2022-12-11T00:58:10;30.07;;;14.27;;
5199;SDS011;2619;47.868;11.892;2022-12-11T01:00:36;27.87;;;14.57;;
5199;SDS011;2619;47.868;11.892;2022-12-11T01:03:02;25.63;;;13.53;;
5199;SDS011;2619;47.868;11.892;2022-12-11T01:05:28;23.30;;;12.27;;
5199;SDS011;2619;47.868;11.892;2022-12-11T01:07:54;25.73;;;12.93;;
5199;SDS011;2619;47.868;11.892;2022-12-11T01:10:19;22.53;;;12.20;;
5199;SDS011;2619;47.868;11.892;2022-12-11T01:12:49;27.47;;;13.50;;
5199;SDS011;2619;47.868;11.892;2022-12-11T01:15:15;26.57;;;12.07;;
5199;SDS011;2619;47.868;11.892;2022-12-11T01:17:40;23.87;;;13.30;;
5199;SDS011;2619;47.868;11.892;2022-12-11T01:20:06;27.40;;;12.20;;
5199;SDS011;2619;47.868;11.892;2022-12-11T01:22:32;22.17;;;11.33;;
5199;SDS011;2619;47.868;11.892;2022-12-11T01:24:58;23.40;;;11.83;;
5199;SDS011;2619;47.868;11.892;2022-12-11T01:27:23;25.53;;;11.70;;
5199;SDS011;2619;47.868;11.892;2022-12-11T01:29:49;30.00;;;13.47;;
5199;SDS011;2619;47.868;11.892;2022-12-11T01:32:15;27.30;;;13.17;;
5199;SDS011;2619;47.868;11.892;2022-12-11T01:34:40;25.90;;;12.90;;
5199;SDS011;2619;47.868;11.892;2022-12-11T01:37:06;22.13;;;11.70;;
5199;SDS011;2619;47.868;11.892;2022-12-11T01:39:32;26.90;;;13.53;;
5199;SDS011;2619;47.868;11.892;2022-12-11T01:41:58;32.63;;;13.40;;
5199;SDS011;2619;47.868;11.892;2022-12-11T01:46:51;29.70;;;14.00;;
5199;SDS011;2619;47.868;11.892;2022-12-11T01:49:17;26.80;;;13.90;;
5199;SDS011;2619;47.868;11.892;2022-12-11T01:51:51;26.00;;;13.07;;
5199;SDS011;2619;47.868;11.892;2022-12-11T01:54:20;23.17;;;12.73;;
5199;SDS011;2619;47.868;11.892;2022-12-11T01:56:48;24.60;;;11.70;;
5199;SDS011;2619;47.868;11.892;2022-12-11T01:59:16;27.97;;;12.43;;
5199;SDS011;2619;47.868;11.892;2022-12-11T02:01:55;27.60;;;13.23;;
5199;SDS011;2619;47.868;11.892;2022-12-11T02:04:30;28.77;;;14.00;;
5199;SDS011;2619;47.868;11.892;2022-12-11T02:06:58;20.27;;;11.50;;
5199;SDS011;2619;47.868;11.892;2022-12-11T02:09:27;22.30;;;10.60;;
5199;SDS011;2619;47.868;11.892;2022-12-11T02:20:17;24.63;;;13.00;;
5199;SDS011;2619;47.868;11.892;2022-12-11T02:25:30;27.83;;;13.67;;
5199;SDS011;2619;47.868;11.892;2022-12-11T02:31:13;23.33;;;12.90;;
5199;SDS011;2619;47.868;11.892;2022-12-11T02:36:28;22.20;;;11.47;;
5199;SDS011;2619;47.868;11.892;2022-12-11T02:38:57;21.20;;;12.17;;
5199;SDS011;2619;47.868;11.892;2022-12-11T02:41:26;21.60;;;12.00;;
5199;SDS011;2619;47.868;11.892;2022-12-11T02:43:54;25.27;;;12.93;;
5199;SDS011;2619;47.868;11.892;2022-12-11T02:46:21;28.03;;;13.70;;
5199;SDS011;2619;47.868;11.892;2022-12-11T02:48:49;19.43;;;11.60;;
5199;SDS011;2619;47.868;11.892;2022-12-11T02:51:18;22.23;;;13.53;;
5199;SDS011;2619;47.868;11.892;2022-12-11T02:53:47;21.80;;;10.70;;
5199;SDS011;2619;47.868;11.892;2022-12-11T02:56:29;22.80;;;12.00;;
5199;SDS011;2619;47.868;11.892;2022-12-11T02:58:59;23.13;;;12.50;;
5199;SDS011;2619;47.868;11.892;2022-12-11T03:01:28;24.10;;;11.53;;
5199;SDS011;2619;47.868;11.892;2022-12-11T03:03:54;28.03;;;13.30;;
5199;SDS011;2619;47.868;11.892;2022-12-11T03:06:23;18.90;;;10.00;;
5199;SDS011;2619;47.868;11.892;2022-12-11T03:08:56;22.87;;;12.20;;
5199;SDS011;2619;47.868;11.892;2022-12-11T03:11:21;24.60;;;11.40;;
5199;SDS011;2619;47.868;11.892;2022-12-11T03:13:47;23.10;;;11.70;;
5199;SDS011;2619;47.868;11.892;2022-12-11T03:19:00;24.67;;;11.30;;
5199;SDS011;2619;47.868;11.892;2022-12-11T03:21:30;24.43;;;12.40;;
5199;SDS011;2619;47.868;11.892;2022-12-11T03:24:04;22.70;;;11.87;;
5199;SDS011;2619;47.868;11.892;2022-12-11T03:26:31;23.67;;;11.00;;
5199;SDS011;2619;47.868;11.892;2022-12-11T03:29:04;23.67;;;11.27;;
5199;SDS011;2619;47.868;11.892;2022-12-11T03:31:45;19.33;;;10.30;;
5199;SDS011;2619;47.868;11.892;2022-12-11T03:34:37;19.60;;;10.27;;
5199;SDS011;2619;47.868;11.892;2022-12-11T03:37:22;21.10;;;10.30;;
5199;SDS011;2619;47.868;11.892;2022-12-11T03:39:53;22.10;;;10.07;;
5199;SDS011;2619;47.868;11.892;2022-12-11T03:42:23;20.27;;;11.73;;
5199;SDS011;2619;47.868;11.892;2022-12-11T03:44:50;18.70;;;10.40;;
5199;SDS011;2619;47.868;11.892;2022-12-11T03:47:19;20.80;;;10.37;;
5199;SDS011;2619;47.868;11.892;2022-12-11T03:49:47;21.87;;;10.07;;
5199;SDS011;2619;47.868;11.892;2022-12-11T03:52:15;20.97;;;11.80;;
5199;SDS011;2619;47.868;11.892;2022-12-11T03:54:42;23.33;;;11.60;;
5199;SDS011;2619;47.868;11.892;2022-12-11T03:57:11;18.50;;;10.17;;
5199;SDS011;2619;47.868;11.892;2022-12-11T03:59:40;23.33;;;11.17;;
5199;SDS011;2619;47.868;11.892;2022-12-11T04:02:06;21.87;;;10.33;;
5199;SDS011;2619;47.868;11.892;2022-12-11T04:04:38;21.50;;;10.63;;
5199;SDS011;2619;47.868;11.892;2022-12-11T04:07:05;17.87;;;10.30;;
5199;SDS011;2619;47.868;11.892;2022-12-11T04:09:32;25.70;;;11.30;;
5199;SDS011;2619;47.868;11.892;2022-12-11T04:11:58;20.30;;;10.33;;
5199;SDS011;2619;47.868;11.892;2022-12-11T04:14:23;19.20;;;10.17;;
5199;SDS011;2619;47.868;11.892;2022-12-11T04:17:07;17.27;;;8.90;;
5199;SDS011;2619;47.868;11.892;2022-12-11T04:19:33;17.53;;;9.17;;
5199;SDS011;2619;47.868;11.892;2022-12-11T04:22:17;18.90;;;9.40;;
5199;SDS011;2619;47.868;11.892;2022-12-11T04:25:03;17.50;;;9.53;;
5199;SDS011;2619;47.868;11.892;2022-12-11T04:27:30;22.17;;;10.20;;
5199;SDS011;2619;47.868;11.892;2022-12-11T04:30:18;18.73;;;9.47;;
5199;SDS011;2619;47.868;11.892;2022-12-11T04:32:46;19.83;;;9.00;;
5199;SDS011;2619;47.868;11.892;2022-12-11T04:35:13;16.27;;;9.10;;
5199;SDS011;2619;47.868;11.892;2022-12-11T04:37:39;18.17;;;8.37;;
5199;SDS011;2619;47.868;11.892;2022-12-11T04:40:06;20.30;;;8.90;;
5199;SDS011;2619;47.868;11.892;2022-12-11T04:42:33;17.37;;;10.07;;
5199;SDS011;2619;47.868;11.892;2022-12-11T04:44:59;17.80;;;8.33;;
5199;SDS011;2619;47.868;11.892;2022-12-11T04:47:25;16.53;;;8.87;;
5199;SDS011;2619;47.868;11.892;2022-12-11T04:49:51;15.83;;;9.07;;
5199;SDS011;2619;47.868;11.892;2022-12-11T04:52:17;16.13;;;9.07;;
5199;SDS011;2619;47.868;11.892;2022-12-11T04:54:43;18.40;;;9.03;;
5199;SDS011;2619;47.868;11.892;2022-12-11T04:57:08;15.60;;;8.40;;
5199;SDS011;2619;47.868;11.892;2022-12-11T04:59:34;16.80;;;9.00;;
5199;SDS011;2619;47.868;11.892;2022-12-11T05:02:01;17.00;;;8.87;;
5199;SDS011;2619;47.868;11.892;2022-12-11T05:04:33;15.40;;;8.40;;
5199;SDS011;2619;47.868;11.892;2022-12-11T05:07:00;16.70;;;8.90;;
5199;SDS011;2619;47.868;11.892;2022-12-11T05:09:26;15.93;;;8.90;;
5199;SDS011;2619;47.868;11.892;2022-12-11T05:11:51;17.73;;;9.87;;
5199;SDS011;2619;47.868;11.892;2022-12-11T05:14:17;14.40;;;7.70;;
5199;SDS011;2619;47.868;11.892;2022-12-11T05:16:43;17.53;;;9.60;;
5199;SDS011;2619;47.868;11.892;2022-12-11T05:19:09;16.83;;;9.33;;
5199;SDS011;2619;47.868;11.892;2022-12-11T05:21:34;17.33;;;9.20;;
5199;SDS011;2619;47.868;11.892;2022-12-11T05:24:00;15.43;;;8.43;;
5199;SDS011;2619;47.868;11.892;2022-12-11T05:26:26;21.27;;;10.07;;
5199;SDS011;2619;47.868;11.892;2022-12-11T05:28:52;17.40;;;8.00;;
5199;SDS011;2619;47.868;11.892;2022-12-11T05:31:19;18.07;;;8.27;;
5199;SDS011;2619;47.868;11.892;2022-12-11T05:33:49;13.70;;;7.40;;
5199;SDS011;2619;47.868;11.892;2022-12-11T05:36:20;15.87;;;9.33;;
5199;SDS011;2619;47.868;11.892;2022-12-11T05:38:47;15.03;;;8.07;;
5199;SDS011;2619;47.868;11.892;2022-12-11T05:41:15;17.63;;;9.53;;
5199;SDS011;2619;47.868;11.892;2022-12-11T05:43:43;14.00;;;7.20;;
5199;SDS011;2619;47.868;11.892;2022-12-11T05:46:10;18.73;;;8.70;;
5199;SDS011;2619;47.868;11.892;2022-12-11T05:48:38;15.77;;;7.80;;
5199;SDS011;2619;47.868;11.892;2022-12-11T05:51:04;16.37;;;7.93;;
5199;SDS011;2619;47.868;11.892;2022-12-11T05:53:31;12.70;;;7.77;;
5199;SDS011;2619;47.868;11.892;2022-12-11T05:56:04;15.40;;;7.80;;
5199;SDS011;2619;47.868;11.892;2022-12-11T05:58:31;13.53;;;7.57;;
5199;SDS011;2619;47.868;11.892;2022-12-11T06:00:58;14.80;;;7.40;;
5199;SDS011;2619;47.868;11.892;2022-12-11T06:03:24;16.33;;;8.63;;
5199;SDS011;2619;47.868;11.892;2022-12-11T06:05:49;14.10;;;8.57;;
5199;SDS011;2619;47.868;11.892;2022-12-11T06:08:15;18.40;;;9.63;;
5199;SDS011;2619;47.868;11.892;2022-12-11T06:10:45;15.10;;;7.93;;
5199;SDS011;2619;47.868;11.892;2022-12-11T06:13:11;16.90;;;8.50;;
5199;SDS011;2619;47.868;11.892;2022-12-11T06:15:37;15.80;;;9.37;;
5199;SDS011;2619;47.868;11.892;2022-12-11T06:18:03;13.77;;;7.53;;
5199;SDS011;2619;47.868;11.892;2022-12-11T06:20:32;15.63;;;8.03;;
5199;SDS011;2619;47.868;11.892;2022-12-11T06:22:58;19.17;;;9.13;;
5199;SDS011;2619;47.868;11.892;2022-12-11T06:25:24;17.73;;;8.70;;
5199;SDS011;2619;47.868;11.892;2022-12-11T06:27:50;21.00;;;8.70;;
5199;SDS011;2619;47.868;11.892;2022-12-11T06:30:15;21.23;;;8.80;;
5199;SDS011;2619;47.868;11.892;2022-12-11T06:32:41;16.20;;;8.90;;
5199;SDS011;2619;47.868;11.892;2022-12-11T06:35:07;13.83;;;8.60;;
5199;SDS011;2619;47.868;11.892;2022-12-11T06:37:34;15.07;;;7.40;;
5199;SDS011;2619;47.868;11.892;2022-12-11T06:40:00;14.73;;;8.80;;
5199;SDS011;2619;47.868;11.892;2022-12-11T06:42:28;16.53;;;9.47;;
5199;SDS011;2619;47.868;11.892;2022-12-11T06:44:54;16.60;;;8.40;;
5199;SDS011;2619;47.868;11.892;2022-12-11T06:47:21;21.00;;;9.60;;
5199;SDS011;2619;47.868;11.892;2022-12-11T06:49:47;21.53;;;10.00;;
5199;SDS011;2619;47.868;11.892;2022-12-11T06:52:12;15.20;;;8.73;;
5199;SDS011;2619;47.868;11.892;2022-12-11T06:54:38;16.97;;;8.47;;
5199;SDS011;2619;47.868;11.892;2022-12-11T06:57:03;18.73;;;10.17;;
5199;SDS011;2619;47.868;11.892;2022-12-11T06:59:29;16.47;;;9.20;;
5199;SDS011;2619;47.868;11.892;2022-12-11T07:01:55;18.53;;;9.60;;
5199;SDS011;2619;47.868;11.892;2022-12-11T07:04:20;16.63;;;7.90;;
5199;SDS011;2619;47.868;11.892;2022-12-11T07:06:48;19.27;;;8.60;;
5199;SDS011;2619;47.868;11.892;2022-12-11T07:09:14;16.60;;;8.43;;
5199;SDS011;2619;47.868;11.892;2022-12-11T07:11:40;13.87;;;7.77;;
5199;SDS011;2619;47.868;11.892;2022-12-11T07:14:06;14.73;;;7.83;;
5199;SDS011;2619;47.868;11.892;2022-12-11T07:16:31;17.13;;;8.67;;
5199;SDS011;2619;47.868;11.892;2022-12-11T07:18:57;15.97;;;8.17;;
5199;SDS011;2619;47.868;11.892;2022-12-11T07:21:24;16.93;;;9.13;;
5199;SDS011;2619;47.868;11.892;2022-12-11T07:23:49;15.13;;;8.00;;
5199;SDS011;2619;47.868;11.892;2022-12-11T07:26:16;17.43;;;7.93;;
5199;SDS011;2619;47.868;11.892;2022-12-11T07:28:44;15.60;;;9.67;;
5199;SDS011;2619;47.868;11.892;2022-12-11T07:31:10;15.40;;;9.30;;
5199;SDS011;2619;47.868;11.892;2022-12-11T07:33:38;22.30;;;11.00;;
5199;SDS011;2619;47.868;11.892;2022-12-11T07:36:05;18.27;;;9.60;;
5199;SDS011;2619;47.868;11.892;2022-12-11T07:38:32;18.27;;;9.47;;
5199;SDS011;2619;47.868;11.892;2022-12-11T07:41:05;24.00;;;10.67;;
5199;SDS011;2619;47.868;11.892;2022-12-11T07:43:32;23.73;;;8.37;;
5199;SDS011;2619;47.868;11.892;2022-12-11T07:46:00;14.43;;;8.10;;
5199;SDS011;2619;47.868;11.892;2022-12-11T07:48:26;15.30;;;9.40;;
5199;SDS011;2619;47.868;11.892;2022-12-11T07:50:52;14.43;;;8.03;;
5199;SDS011;2619;47.868;11.892;2022-12-11T07:53:17;19.50;;;8.97;;
5199;SDS011;2619;47.868;11.892;2022-12-11T07:55:43;23.47;;;11.37;;
5199;SDS011;2619;47.868;11.892;2022-12-11T07:58:09;20.63;;;10.60;;
5199;SDS011;2619;47.868;11.892;2022-12-11T08:00:34;22.73;;;11.20;;
5199;SDS011;2619;47.868;11.892;2022-12-11T08:03:00;23.17;;;10.60;;
5199;SDS011;2619;47.868;11.892;2022-12-11T08:05:25;19.83;;;9.53;;
5199;SDS011;2619;47.868;11.892;2022-12-11T08:07:51;17.83;;;10.30;;
5199;SDS011;2619;47.868;11.892;2022-12-11T08:10:16;18.40;;;10.30;;
5199;SDS011;2619;47.868;11.892;2022-12-11T08:12:42;20.07;;;9.03;;
5199;SDS011;2619;47.868;11.892;2022-12-11T08:15:08;16.30;;;9.27;;
5199;SDS011;2619;47.868;11.892;2022-12-11T08:17:34;21.37;;;9.40;;
5199;SDS011;2619;47.868;11.892;2022-12-11T08:19:59;20.40;;;9.27;;
5199;SDS011;2619;47.868;11.892;2022-12-11T08:22:25;19.57;;;10.00;;
5199;SDS011;2619;47.868;11.892;2022-12-11T08:24:50;22.33;;;10.70;;
5199;SDS011;2619;47.868;11.892;2022-12-11T08:27:16;20.60;;;9.27;;
5199;SDS011;2619;47.868;11.892;2022-12-11T08:29:41;18.67;;;10.87;;
5199;SDS011;2619;47.868;11.892;2022-12-11T08:32:07;23.10;;;12.37;;
5199;SDS011;2619;47.868;11.892;2022-12-11T08:34:33;23.33;;;12.20;;
5199;SDS011;2619;47.868;11.892;2022-12-11T08:36:58;22.13;;;13.07;;
5199;SDS011;2619;47.868;11.892;2022-12-11T08:39:24;28.07;;;14.97;;
5199;SDS011;2619;47.868;11.892;2022-12-11T08:41:50;26.47;;;14.77;;
5199;SDS011;2619;47.868;11.892;2022-12-11T08:44:16;29.10;;;14.60;;
5199;SDS011;2619;47.868;11.892;2022-12-11T08:46:41;23.10;;;13.73;;
5199;SDS011;2619;47.868;11.892;2022-12-11T08:49:08;25.17;;;13.53;;
5199;SDS011;2619;47.868;11.892;2022-12-11T08:51:34;25.40;;;14.20;;
5199;SDS011;2619;47.868;11.892;2022-12-11T08:54:00;26.83;;;14.40;;
5199;SDS011;2619;47.868;11.892;2022-12-11T08:56:26;21.27;;;11.47;;
5199;SDS011;2619;47.868;11.892;2022-12-11T08:58:52;18.70;;;10.03;;
5199;SDS011;2619;47.868;11.892;2022-12-11T09:01:22;16.23;;;7.80;;
5199;SDS011;2619;47.868;11.892;2022-12-11T09:03:49;17.17;;;9.57;;
5199;SDS011;2619;47.868;11.892;2022-12-11T09:06:19;18.17;;;8.80;;
5199;SDS011;2619;47.868;11.892;2022-12-11T09:08:46;15.63;;;8.20;;
5199;SDS011;2619;47.868;11.892;2022-12-11T09:11:15;19.40;;;8.07;;
5199;SDS011;2619;47.868;11.892;2022-12-11T09:13:43;9.93;;;6.53;;
5199;SDS011;2619;47.868;11.892;2022-12-11T09:16:10;15.30;;;8.40;;
5199;SDS011;2619;47.868;11.892;2022-12-11T09:18:38;23.20;;;11.70;;
5199;SDS011;2619;47.868;11.892;2022-12-11T09:21:05;20.33;;;11.27;;
5199;SDS011;2619;47.868;11.892;2022-12-11T09:23:35;15.43;;;10.13;;
5199;SDS011;2619;47.868;11.892;2022-12-11T09:26:07;13.30;;;8.60;;
5199;SDS011;2619;47.868;11.892;2022-12-11T09:28:35;17.93;;;9.73;;
5199;SDS011;2619;47.868;11.892;2022-12-11T09:31:06;18.37;;;10.20;;
5199;SDS011;2619;47.868;11.892;2022-12-11T09:33:35;18.80;;;11.07;;
5199;SDS011;2619;47.868;11.892;2022-12-11T09:36:01;20.80;;;12.13;;
5199;SDS011;2619;47.868;11.892;2022-12-11T09:38:28;19.03;;;10.33;;
5199;SDS011;2619;47.868;11.892;2022-12-11T09:40:54;19.47;;;11.00;;
5199;SDS011;2619;47.868;11.892;2022-12-11T09:46:00;22.53;;;11.20;;
5199;SDS011;2619;47.868;11.892;2022-12-11T09:48:28;17.07;;;10.40;;
5199;SDS011;2619;47.868;11.892;2022-12-11T09:50:57;19.50;;;10.90;;
5199;SDS011;2619;47.868;11.892;2022-12-11T09:53:30;16.33;;;9.23;;
5199;SDS011;2619;47.868;11.892;2022-12-11T09:56:01;19.10;;;10.23;;
5199;SDS011;2619;47.868;11.892;2022-12-11T10:04:30;15.63;;;8.13;;
5199;SDS011;2619;47.868;11.892;2022-12-11T10:07:11;13.97;;;8.03;;
5199;SDS011;2619;47.868;11.892;2022-12-11T10:12:53;16.23;;;7.73;;
5199;SDS011;2619;47.868;11.892;2022-12-11T10:15:32;15.27;;;7.47;;
5199;SDS011;2619;47.868;11.892;2022-12-11T10:18:15;18.03;;;8.20;;
5199;SDS011;2619;47.868;11.892;2022-12-11T10:20:45;14.63;;;7.77;;
5199;SDS011;2619;47.868;11.892;2022-12-11T10:23:15;17.47;;;7.80;;
5199;SDS011;2619;47.868;11.892;2022-12-11T10:26:04;12.20;;;7.53;;
5199;SDS011;2619;47.868;11.892;2022-12-11T10:28:32;14.53;;;7.53;;
5199;SDS011;2619;47.868;11.892;2022-12-11T10:34:12;16.20;;;7.83;;
5199;SDS011;2619;47.868;11.892;2022-12-11T10:36:43;16.73;;;8.90;;
5199;SDS011;2619;47.868;11.892;2022-12-11T10:39:13;16.00;;;8.87;;
5199;SDS011;2619;47.868;11.892;2022-12-11T10:41:47;14.67;;;6.77;;
5199;SDS011;2619;47.868;11.892;2022-12-11T10:44:19;16.77;;;8.23;;
5199;SDS011;2619;47.868;11.892;2022-12-11T10:46:45;14.50;;;8.07;;
5199;SDS011;2619;47.868;11.892;2022-12-11T10:49:32;15.53;;;8.10;;
5199;SDS011;2619;47.868;11.892;2022-12-11T10:52:00;12.67;;;7.43;;
5199;SDS011;2619;47.868;11.892;2022-12-11T10:54:37;14.53;;;7.90;;
5199;SDS011;2619;47.868;11.892;2022-12-11T10:57:05;15.00;;;8.27;;
5199;SDS011;2619;47.868;11.892;2022-12-11T10:59:36;14.40;;;8.00;;
5199;SDS011;2619;47.868;11.892;2022-12-11T11:04:56;15.40;;;8.10;;
5199;SDS011;2619;47.868;11.892;2022-12-11T11:07:27;16.17;;;8.50;;
5199;SDS011;2619;47.868;11.892;2022-12-11T11:10:13;14.87;;;7.70;;
5199;SDS011;2619;47.868;11.892;2022-12-11T11:12:45;13.67;;;7.90;;
5199;SDS011;2619;47.868;11.892;2022-12-11T11:17:50;16.60;;;9.13;;
5199;SDS011;2619;47.868;11.892;2022-12-11T11:20:19;14.67;;;9.00;;
5199;SDS011;2619;47.868;11.892;2022-12-11T11:22:48;13.33;;;8.73;;
5199;SDS011;2619;47.868;11.892;2022-12-11T11:25:19;14.60;;;7.73;;
5199;SDS011;2619;47.868;11.892;2022-12-11T11:27:49;13.17;;;7.57;;
5199;SDS011;2619;47.868;11.892;2022-12-11T11:30:23;12.60;;;7.10;;
5199;SDS011;2619;47.868;11.892;2022-12-11T11:32:55;13.80;;;7.13;;
5199;SDS011;2619;47.868;11.892;2022-12-11T11:35:25;11.13;;;6.43;;
5199;SDS011;2619;47.868;11.892;2022-12-11T11:37:54;14.00;;;8.03;;
5199;SDS011;2619;47.868;11.892;2022-12-11T11:40:23;12.97;;;7.27;;
5199;SDS011;2619;47.868;11.892;2022-12-11T11:42:58;11.03;;;6.33;;
5199;SDS011;2619;47.868;11.892;2022-12-11T11:48:24;14.93;;;8.30;;
5199;SDS011;2619;47.868;11.892;2022-12-11T11:53:57;12.97;;;8.03;;
5199;SDS011;2619;47.868;11.892;2022-12-11T11:56:26;13.07;;;8.67;;
5199;SDS011;2619;47.868;11.892;2022-12-11T11:59:00;20.67;;;10.83;;
5199;SDS011;2619;47.868;11.892;2022-12-11T12:01:35;19.17;;;10.70;;
5199;SDS011;2619;47.868;11.892;2022-12-11T12:04:01;17.10;;;8.87;;
5199;SDS011;2619;47.868;11.892;2022-12-11T12:09:37;12.67;;;6.70;;
5199;SDS011;2619;47.868;11.892;2022-12-11T12:14:46;11.77;;;7.20;;
5199;SDS011;2619;47.868;11.892;2022-12-11T12:25:27;8.83;;;5.70;;
5199;SDS011;2619;47.868;11.892;2022-12-11T12:27:58;12.60;;;7.37;;
5199;SDS011;2619;47.868;11.892;2022-12-11T12:30:56;13.30;;;6.80;;
5199;SDS011;2619;47.868;11.892;2022-12-11T12:34:23;14.37;;;7.90;;
5199;SDS011;2619;47.868;11.892;2022-12-11T12:36:37;12.87;;;7.33;;
5199;SDS011;2619;47.868;11.892;2022-12-11T12:44:50;12.90;;;6.50;;
5199;SDS011;2619;47.868;11.892;2022-12-11T12:47:36;11.30;;;6.57;;
5199;SDS011;2619;47.868;11.892;2022-12-11T12:50:05;11.60;;;6.80;;
5199;SDS011;2619;47.868;11.892;2022-12-11T12:52:37;15.17;;;8.30;;
5199;SDS011;2619;47.868;11.892;2022-12-11T12:55:21;12.60;;;6.90;;
5199;SDS011;2619;47.868;11.892;2022-12-11T13:00:30;14.87;;;8.10;;
5199;SDS011;2619;47.868;11.892;2022-12-11T13:03:13;10.73;;;5.60;;
5199;SDS011;2619;47.868;11.892;2022-12-11T13:05:43;13.90;;;7.10;;
5199;SDS011;2619;47.868;11.892;2022-12-11T13:08:22;9.60;;;6.17;;
5199;SDS011;2619;47.868;11.892;2022-12-11T13:11:04;13.20;;;6.90;;
5199;SDS011;2619;47.868;11.892;2022-12-11T13:13:34;10.63;;;5.10;;
5199;SDS011;2619;47.868;11.892;2022-12-11T13:18:40;14.13;;;5.60;;
5199;SDS011;2619;47.868;11.892;2022-12-11T13:21:30;13.97;;;6.80;;
5199;SDS011;2619;47.868;11.892;2022-12-11T13:24:14;14.20;;;7.20;;
5199;SDS011;2619;47.868;11.892;2022-12-11T13:26:44;10.37;;;6.63;;
5199;SDS011;2619;47.868;11.892;2022-12-11T13:29:30;12.47;;;6.40;;
5199;SDS011;2619;47.868;11.892;2022-12-11T13:32:41;9.30;;;5.60;;
5199;SDS011;2619;47.868;11.892;2022-12-11T13:34:52;10.80;;;6.50;;
5199;SDS011;2619;47.868;11.892;2022-12-11T13:37:26;10.07;;;5.60;;
5199;SDS011;2619;47.868;11.892;2022-12-11T13:39:54;11.10;;;5.83;;
5199;SDS011;2619;47.868;11.892;2022-12-11T13:42:22;12.23;;;6.97;;
5199;SDS011;2619;47.868;11.892;2022-12-11T13:44:58;8.33;;;5.67;;
5199;SDS011;2619;47.868;11.892;2022-12-11T13:47:26;11.00;;;5.63;;
5199;SDS011;2619;47.868;11.892;2022-12-11T13:49:53;9.30;;;6.00;;
5199;SDS011;2619;47.868;11.892;2022-12-11T13:52:26;9.20;;;5.00;;
5199;SDS011;2619;47.868;11.892;2022-12-11T13:54:53;8.43;;;5.13;;
5199;SDS011;2619;47.868;11.892;2022-12-11T13:57:21;11.60;;;5.37;;
5199;SDS011;2619;47.868;11.892;2022-12-11T13:59:56;11.57;;;5.87;;
5199;SDS011;2619;47.868;11.892;2022-12-11T14:05:01;7.37;;;4.40;;
5199;SDS011;2619;47.868;11.892;2022-12-11T14:07:33;8.50;;;5.10;;
5199;SDS011;2619;47.868;11.892;2022-12-11T14:10:06;6.67;;;3.53;;
5199;SDS011;2619;47.868;11.892;2022-12-11T14:15:23;6.23;;;3.77;;
5199;SDS011;2619;47.868;11.892;2022-12-11T14:17:50;10.33;;;3.70;;
5199;SDS011;2619;47.868;11.892;2022-12-11T14:20:20;5.87;;;2.97;;
5199;SDS011;2619;47.868;11.892;2022-12-11T14:22:48;7.70;;;3.80;;
5199;SDS011;2619;47.868;11.892;2022-12-11T14:25:21;6.47;;;3.60;;
5199;SDS011;2619;47.868;11.892;2022-12-11T14:27:49;5.53;;;3.40;;
5199;SDS011;2619;47.868;11.892;2022-12-11T14:30:23;5.50;;;3.47;;
5199;SDS011;2619;47.868;11.892;2022-12-11T14:32:50;6.17;;;4.07;;
5199;SDS011;2619;47.868;11.892;2022-12-11T14:35:41;5.97;;;3.30;;
5199;SDS011;2619;47.868;11.892;2022-12-11T14:38:09;8.70;;;4.10;;
5199;SDS011;2619;47.868;11.892;2022-12-11T14:40:41;8.77;;;4.17;;
5199;SDS011;2619;47.868;11.892;2022-12-11T14:43:29;9.70;;;4.90;;
5199;SDS011;2619;47.868;11.892;2022-12-11T14:46:03;8.53;;;5.33;;
5199;SDS011;2619;47.868;11.892;2022-12-11T14:48:35;8.07;;;5.60;;
5199;SDS011;2619;47.868;11.892;2022-12-11T14:51:09;8.40;;;4.20;;
5199;SDS011;2619;47.868;11.892;2022-12-11T14:53:48;8.83;;;6.70;;
5199;SDS011;2619;47.868;11.892;2022-12-11T14:56:17;9.30;;;6.33;;
5199;SDS011;2619;47.868;11.892;2022-12-11T14:58:50;11.13;;;5.33;;
5199;SDS011;2619;47.868;11.892;2022-12-11T15:01:27;8.07;;;5.23;;
5199;SDS011;2619;47.868;11.892;2022-12-11T15:06:42;11.67;;;5.50;;
5199;SDS011;2619;47.868;11.892;2022-12-11T15:09:19;8.93;;;4.97;;
5199;SDS011;2619;47.868;11.892;2022-12-11T15:11:48;7.70;;;4.50;;
5199;SDS011;2619;47.868;11.892;2022-12-11T15:14:15;11.30;;;5.70;;
5199;SDS011;2619;47.868;11.892;2022-12-11T15:16:43;10.27;;;5.70;;
5199;SDS011;2619;47.868;11.892;2022-12-11T15:19:19;14.67;;;6.47;;
5199;SDS011;2619;47.868;11.892;2022-12-11T15:21:46;11.70;;;6.70;;
5199;SDS011;2619;47.868;11.892;2022-12-11T15:24:27;17.03;;;9.50;;
5199;SDS011;2619;47.868;11.892;2022-12-11T15:27:02;13.70;;;7.27;;
5199;SDS011;2619;47.868;11.892;2022-12-11T15:34:52;9.23;;;5.20;;
5199;SDS011;2619;47.868;11.892;2022-12-11T15:37:26;8.20;;;4.27;;
5199;SDS011;2619;47.868;11.892;2022-12-11T15:39:55;10.17;;;5.37;;
5199;SDS011;2619;47.868;11.892;2022-12-11T15:42:31;12.33;;;6.40;;
5199;SDS011;2619;47.868;11.892;2022-12-11T15:45:01;10.03;;;5.63;;
5199;SDS011;2619;47.868;11.892;2022-12-11T15:47:29;10.60;;;6.67;;
5199;SDS011;2619;47.868;11.892;2022-12-11T15:49:59;10.47;;;5.13;;
5199;SDS011;2619;47.868;11.892;2022-12-11T15:52:48;12.17;;;6.87;;
5199;SDS011;2619;47.868;11.892;2022-12-11T15:55:14;14.37;;;5.70;;
5199;SDS011;2619;47.868;11.892;2022-12-11T15:57:45;14.23;;;6.13;;
5199;SDS011;2619;47.868;11.892;2022-12-11T16:00:15;9.47;;;5.60;;
5199;SDS011;2619;47.868;11.892;2022-12-11T16:02:43;12.07;;;6.00;;
5199;SDS011;2619;47.868;11.892;2022-12-11T16:05:09;11.13;;;6.37;;
5199;SDS011;2619;47.868;11.892;2022-12-11T16:07:35;11.90;;;6.20;;
5199;SDS011;2619;47.868;11.892;2022-12-11T16:10:00;8.87;;;5.80;;
5199;SDS011;2619;47.868;11.892;2022-12-11T16:12:26;8.70;;;6.23;;
5199;SDS011;2619;47.868;11.892;2022-12-11T16:14:52;12.65;;;6.55;;
5199;SDS011;2619;47.868;11.892;2022-12-11T16:17:17;10.17;;;6.17;;
5199;SDS011;2619;47.868;11.892;2022-12-11T16:19:43;13.27;;;6.30;;
5199;SDS011;2619;47.868;11.892;2022-12-11T16:22:10;13.17;;;6.20;;
5199;SDS011;2619;47.868;11.892;2022-12-11T16:24:36;10.07;;;5.37;;